Time,TemperatureF,DewpointF,PressureIn,WindDirection,WindDirectionDegrees,WindSpeedMPH,WindSpeedGustMPH,Humidity,HourlyPrecipIn,Conditions,Clouds,dailyrainin,SoftwareType,DateUTC
2013-02-09 00:00:00,18.1,16.0,29.37,NNW,332,2.2,3.6,93,0.00,,,0.00,WXlink_for_OpenVMS,2013-02-09 05:00:00,
2013-02-09 00:05:00,18.1,16.0,29.37,North,357,3.1,6.3,92,0.00,,,0.00,WXlink_for_OpenVMS,2013-02-09 05:05:00,
2013-02-09 00:10:00,18.1,16.0,29.37,WNW,288,4.9,5.4,92,0.00,,,0.00,WXlink_for_OpenVMS,2013-02-09 05:10:00,
2013-02-09 00:15:00,17.8,16.0,29.34,WNW,293,2.7,0.0,92,0.00,,,0.00,WXlink_for_OpenVMS,2013-02-09 05:15:00,
2013-02-09 00:20:00,17.8,16.0,29.34,North,353,4.0,5.4,92,0.00,,,0.00,WXlink_for_OpenVMS,2013-02-09 05:20:00,
2013-02-09 00:30:00,17.4,15.0,29.34,NNW,340,5.4,8.1,92,0.00,,,0.00,WXlink_for_OpenVMS,2013-02-09 05:30:00,
2013-02-09 00:35:00,17.4,15.0,29.34,NW,312,4.0,4.0,92,0.00,,,0.00,WXlink_for_OpenVMS,2013-02-09 05:35:00,
2013-02-09 00:40:00,17.6,16.0,29.34,WNW,293,4.5,8.1,92,0.00,,,0.00,WXlink_for_OpenVMS,2013-02-09 05:40:00,
2013-02-09 00:45:00,17.4,15.0,29.34,WNW,286,0.0,2.2,92,0.00,,,0.00,WXlink_for_OpenVMS,2013-02-09 05:45:00,
2013-02-09 00:50:00,17.2,15.0,29.34,NW,308,5.8,5.8,92,0.00,,,0.00,WXlink_for_OpenVMS,2013-02-09 05:50:00,
2013-02-09 00:55:00,17.2,15.0,29.34,WNW,294,4.0,4.0,92,0.00,,,0.00,WXlink_for_OpenVMS,2013-02-09 05:55:00,
2013-02-09 01:00:00,17.1,15.0,29.34,NNW,329,4.0,4.0,92,0.00,,,0.00,WXlink_for_OpenVMS,2013-02-09 06:00:00,
2013-02-09 01:05:00,17.1,15.0,29.34,NNW,345,5.8,5.8,92,0.00,,,0.00,WXlink_for_OpenVMS,2013-02-09 06:05:00,
2013-02-09 01:10:00,17.1,15.0,29.34,NW,317,4.0,5.4,92,0.00,,,0.00,WXlink_for_OpenVMS,2013-02-09 06:10:00,
2013-02-09 01:15:00,17.1,15.0,29.34,NNE,14,5.8,7.6,92,0.00,,,0.00,WXlink_for_OpenVMS,2013-02-09 06:15:00,
2013-02-09 01:20:00,17.1,15.0,29.34,WNW,288,2.7,2.7,92,0.00,,,0.00,WXlink_for_OpenVMS,2013-02-09 06:20:00,
2013-02-09 01:25:00,17.1,15.0,29.34,NNW,335,4.0,5.4,92,0.00,,,0.00,WXlink_for_OpenVMS,2013-02-09 06:25:00,
2013-02-09 01:35:00,17.4,15.0,29.34,North,0,4.0,0.0,92,0.00,,,0.00,WXlink_for_OpenVMS,2013-02-09 06:35:00,
2013-02-09 01:40:00,17.4,15.0,29.34,NNE,16,6.3,6.3,92,0.00,,,0.00,WXlink_for_OpenVMS,2013-02-09 06:40:00,
2013-02-09 01:45:00,17.6,16.0,29.34,NW,306,7.6,7.6,92,0.00,,,0.00,WXlink_for_OpenVMS,2013-02-09 06:45:00,
2013-02-09 01:50:00,17.6,16.0,29.34,NW,309,4.5,4.5,92,0.00,,,0.00,WXlink_for_OpenVMS,2013-02-09 06:50:00,
2013-02-09 01:55:00,17.6,16.0,29.34,NNW,329,4.9,6.3,92,0.00,,,0.00,WXlink_for_OpenVMS,2013-02-09 06:55:00,
2013-02-09 02:00:00,17.4,15.0,29.34,NNW,328,4.9,5.8,92,0.00,,,0.00,WXlink_for_OpenVMS,2013-02-09 07:00:00,
2013-02-09 02:10:00,17.2,15.0,29.34,WNW,293,7.6,10.1,92,0.00,,,0.00,WXlink_for_OpenVMS,2013-02-09 07:10:00,
2013-02-09 02:15:00,17.4,15.0,29.34,NNW,335,4.9,4.9,92,0.00,,,0.00,WXlink_for_OpenVMS,2013-02-09 07:15:00,
2013-02-09 02:20:00,17.2,15.0,29.34,NNW,330,6.3,6.3,92,0.00,,,0.00,WXlink_for_OpenVMS,2013-02-09 07:20:00,
2013-02-09 02:25:00,17.1,15.0,29.34,NNW,333,6.7,7.6,92,0.00,,,0.00,WXlink_for_OpenVMS,2013-02-09 07:25:00,
2013-02-09 02:30:00,17.1,15.0,29.34,NW,314,6.7,7.6,92,0.00,,,0.00,WXlink_for_OpenVMS,2013-02-09 07:30:00,
2013-02-09 02:35:00,17.1,15.0,29.34,WNW,293,6.7,6.7,92,0.00,,,0.00,WXlink_for_OpenVMS,2013-02-09 07:35:00,
2013-02-09 02:40:00,17.2,15.0,29.34,NNW,333,6.7,6.7,92,0.00,,,0.00,WXlink_for_OpenVMS,2013-02-09 07:40:00,
2013-02-09 02:45:00,17.2,15.0,29.34,West,278,4.0,4.0,92,0.00,,,0.00,WXlink_for_OpenVMS,2013-02-09 07:45:00,
2013-02-09 02:55:00,17.4,15.0,29.34,NNW,335,7.2,7.2,92,0.00,,,0.00,WXlink_for_OpenVMS,2013-02-09 07:55:00,
2013-02-09 03:00:00,17.4,15.0,29.34,NW,326,7.2,7.2,92,0.00,,,0.00,WXlink_for_OpenVMS,2013-02-09 08:00:00,
2013-02-09 03:05:00,17.4,15.0,29.34,NW,326,5.4,5.4,92,0.00,,,0.00,WXlink_for_OpenVMS,2013-02-09 08:05:00,
2013-02-09 03:10:00,17.4,15.0,29.34,WNW,291,5.8,5.8,92,0.00,,,0.00,WXlink_for_OpenVMS,2013-02-09 08:10:00,
2013-02-09 03:15:00,17.6,16.0,29.34,NNW,341,6.3,7.6,92,0.00,,,0.00,WXlink_for_OpenVMS,2013-02-09 08:15:00,
2013-02-09 03:20:00,17.4,15.0,29.34,NNW,339,3.1,3.1,92,0.00,,,0.00,WXlink_for_OpenVMS,2013-02-09 08:20:00,
2013-02-09 03:30:00,17.4,15.0,29.34,NW,321,5.4,5.4,92,0.00,,,0.00,WXlink_for_OpenVMS,2013-02-09 08:30:00,
2013-02-09 03:35:00,17.4,15.0,29.34,North,0,3.6,5.8,92,0.00,,,0.00,WXlink_for_OpenVMS,2013-02-09 08:35:00,
2013-02-09 03:40:00,17.4,15.0,29.34,NW,320,4.5,8.3,92,0.00,,,0.00,WXlink_for_OpenVMS,2013-02-09 08:40:00,
2013-02-09 03:45:00,17.4,15.0,29.34,NW,315,5.8,5.8,92,0.00,,,0.00,WXlink_for_OpenVMS,2013-02-09 08:45:00,
2013-02-09 03:50:00,17.4,15.0,29.34,NNW,331,6.3,6.3,92,0.00,,,0.00,WXlink_for_OpenVMS,2013-02-09 08:50:00,
2013-02-09 03:55:00,17.2,15.0,29.34,WNW,299,5.4,8.3,92,0.00,,,0.00,WXlink_for_OpenVMS,2013-02-09 08:55:00,
2013-02-09 04:00:00,17.4,15.0,29.34,NNW,335,6.3,6.3,92,0.00,,,0.00,WXlink_for_OpenVMS,2013-02-09 09:00:00,
2013-02-09 04:05:00,17.4,15.0,29.34,NNW,328,3.1,0.0,92,0.00,,,0.00,WXlink_for_OpenVMS,2013-02-09 09:05:00,
2013-02-09 04:10:00,17.6,16.0,29.34,North,350,5.8,7.2,92,0.00,,,0.00,WXlink_for_OpenVMS,2013-02-09 09:10:00,
2013-02-09 04:15:00,17.6,16.0,29.37,NW,322,6.3,6.3,93,0.00,,,0.00,WXlink_for_OpenVMS,2013-02-09 09:15:00,
2013-02-09 04:20:00,17.8,16.0,29.37,NNW,328,5.8,5.8,93,0.00,,,0.00,WXlink_for_OpenVMS,2013-02-09 09:20:00,
2013-02-09 04:30:00,18.1,16.0,29.37,NW,307,4.9,4.9,93,0.00,,,0.00,WXlink_for_OpenVMS,2013-02-09 09:30:00,
2013-02-09 04:35:00,18.3,17.0,29.37,NW,321,6.7,6.7,93,0.00,,,0.00,WXlink_for_OpenVMS,2013-02-09 09:35:00,
2013-02-09 04:40:00,18.3,17.0,29.37,NNW,336,8.7,8.7,93,0.00,,,0.00,WXlink_for_OpenVMS,2013-02-09 09:40:00,
2013-02-09 04:45:00,18.5,17.0,29.37,NW,320,7.6,8.7,93,0.00,,,0.00,WXlink_for_OpenVMS,2013-02-09 09:45:00,
2013-02-09 04:50:00,18.7,17.0,29.37,NNW,334,6.3,7.2,93,0.00,,,0.00,WXlink_for_OpenVMS,2013-02-09 09:50:00,
2013-02-09 04:55:00,18.7,17.0,29.37,NW,304,4.0,5.4,93,0.00,,,0.00,WXlink_for_OpenVMS,2013-02-09 09:55:00,
2013-02-09 05:00:00,18.9,17.0,29.37,NNW,343,4.0,7.6,93,0.00,,,0.00,WXlink_for_OpenVMS,2013-02-09 10:00:00,
2013-02-09 05:10:00,19.2,18.0,29.37,NNW,346,8.3,8.3,94,0.00,,,0.00,WXlink_for_OpenVMS,2013-02-09 10:10:00,
2013-02-09 05:15:00,19.4,18.0,29.37,ESE,122,3.6,4.9,94,0.00,,,0.00,WXlink_for_OpenVMS,2013-02-09 10:15:00,
2013-02-09 05:20:00,19.4,18.0,29.37,NW,320,5.4,5.8,94,0.00,,,0.00,WXlink_for_OpenVMS,2013-02-09 10:20:00,
2013-02-09 05:25:00,19.6,18.0,29.37,WNW,299,6.7,6.7,94,0.00,,,0.00,WXlink_for_OpenVMS,2013-02-09 10:25:00,
2013-02-09 05:30:00,19.8,19.0,29.34,NNW,333,4.0,4.0,95,0.00,,,0.00,WXlink_for_OpenVMS,2013-02-09 10:30:00,
2013-02-09 05:35:00,19.9,19.0,29.34,NW,306,4.9,4.9,95,0.00,,,0.00,WXlink_for_OpenVMS,2013-02-09 10:35:00,
2013-02-09 05:45:00,20.3,19.0,29.37,NW,311,4.0,5.8,95,0.00,,,0.00,WXlink_for_OpenVMS,2013-02-09 10:45:00,
2013-02-09 05:50:00,20.5,19.0,29.37,NW,318,6.3,6.3,95,0.00,,,0.00,WXlink_for_OpenVMS,2013-02-09 10:50:00,
2013-02-09 05:55:00,20.7,19.0,29.37,NW,326,5.8,8.1,95,0.00,,,0.00,WXlink_for_OpenVMS,2013-02-09 10:55:00,
2013-02-09 06:00:00,20.7,19.0,29.37,NW,320,5.4,7.6,95,0.00,,,0.00,WXlink_for_OpenVMS,2013-02-09 11:00:00,
2013-02-09 06:05:00,20.7,19.0,29.37,NW,313,4.0,8.7,95,0.00,,,0.00,WXlink_for_OpenVMS,2013-02-09 11:05:00,
2013-02-09 06:10:00,20.7,19.0,29.37,NNW,327,5.8,5.8,95,0.00,,,0.00,WXlink_for_OpenVMS,2013-02-09 11:10:00,
2013-02-09 06:15:00,20.5,19.0,29.37,NW,324,4.9,5.8,95,0.00,,,0.00,WXlink_for_OpenVMS,2013-02-09 11:15:00,
2013-02-09 06:20:00,20.3,19.0,29.37,NW,315,4.5,5.4,95,0.00,,,0.00,WXlink_for_OpenVMS,2013-02-09 11:20:00,
2013-02-09 06:30:00,20.3,19.0,29.37,WNW,303,7.6,7.6,95,0.00,,,0.00,WXlink_for_OpenVMS,2013-02-09 11:30:00,
2013-02-09 06:35:00,20.3,19.0,29.37,NNW,330,6.7,6.7,95,0.00,,,0.00,WXlink_for_OpenVMS,2013-02-09 11:35:00,
2013-02-09 06:40:00,20.3,19.0,29.37,NW,318,4.9,4.9,95,0.00,,,0.00,WXlink_for_OpenVMS,2013-02-09 11:40:00,
2013-02-09 06:45:00,20.3,19.0,29.40,WNW,295,4.9,5.8,95,0.00,,,0.00,WXlink_for_OpenVMS,2013-02-09 11:45:00,
2013-02-09 06:50:00,20.3,19.0,29.40,NW,307,5.8,5.8,95,0.00,,,0.00,WXlink_for_OpenVMS,2013-02-09 11:50:00,
2013-02-09 06:55:00,20.3,19.0,29.40,WNW,291,3.6,5.4,95,0.00,,,0.00,WXlink_for_OpenVMS,2013-02-09 11:55:00,
2013-02-09 07:00:00,20.5,19.0,29.40,NW,317,4.0,5.4,95,0.00,,,0.00,WXlink_for_OpenVMS,2013-02-09 12:00:00,
2013-02-09 07:05:00,20.5,19.0,29.40,NNW,328,6.3,8.1,95,0.00,,,0.00,WXlink_for_OpenVMS,2013-02-09 12:05:00,
2013-02-09 07:10:00,20.5,19.0,29.40,NNW,331,4.5,4.5,95,0.00,,,0.00,WXlink_for_OpenVMS,2013-02-09 12:10:00,
2013-02-09 07:15:00,20.5,19.0,29.40,NNW,331,4.9,4.9,95,0.00,,,0.00,WXlink_for_OpenVMS,2013-02-09 12:15:00,
2013-02-09 07:20:00,20.5,19.0,29.40,NNW,328,4.9,6.3,95,0.00,,,0.00,WXlink_for_OpenVMS,2013-02-09 12:20:00,
2013-02-09 07:25:00,20.3,19.0,29.40,NW,315,4.5,4.5,95,0.00,,,0.00,WXlink_for_OpenVMS,2013-02-09 12:25:00,
2013-02-09 07:30:00,20.3,19.0,29.40,NW,304,6.3,7.6,95,0.00,,,0.00,WXlink_for_OpenVMS,2013-02-09 12:30:00,
2013-02-09 07:35:00,20.5,19.0,29.40,NW,307,4.9,5.8,95,0.00,,,0.00,WXlink_for_OpenVMS,2013-02-09 12:35:00,
2013-02-09 07:45:00,20.5,19.0,29.43,WNW,292,4.5,4.5,95,0.00,,,0.00,WXlink_for_OpenVMS,2013-02-09 12:45:00,
2013-02-09 07:50:00,20.7,19.0,29.43,WNW,300,5.8,10.1,95,0.00,,,0.00,WXlink_for_OpenVMS,2013-02-09 12:50:00,
2013-02-09 07:55:00,20.7,19.0,29.43,NW,318,4.0,4.0,95,0.00,,,0.00,WXlink_for_OpenVMS,2013-02-09 12:55:00,
2013-02-09 08:00:00,20.5,19.0,29.43,NNW,343,4.9,4.9,95,0.00,,,0.00,WXlink_for_OpenVMS,2013-02-09 13:00:00,
2013-02-09 08:05:00,20.5,19.0,29.43,NW,306,4.9,8.3,95,0.00,,,0.00,WXlink_for_OpenVMS,2013-02-09 13:05:00,
2013-02-09 08:10:00,20.3,19.0,29.43,NW,304,5.4,5.4,95,0.00,,,0.00,WXlink_for_OpenVMS,2013-02-09 13:10:00,
2013-02-09 08:20:00,20.3,19.0,29.43,West,276,7.6,8.1,95,0.00,,,0.00,WXlink_for_OpenVMS,2013-02-09 13:20:00,
2013-02-09 08:25:00,20.1,19.0,29.43,NNW,334,5.4,5.4,94,0.00,,,0.00,WXlink_for_OpenVMS,2013-02-09 13:25:00,
2013-02-09 08:30:00,20.1,19.0,29.43,NW,322,4.9,4.9,94,0.00,,,0.00,WXlink_for_OpenVMS,2013-02-09 13:30:00,
2013-02-09 08:35:00,19.9,19.0,29.43,NNW,332,4.5,4.5,95,0.00,,,0.00,WXlink_for_OpenVMS,2013-02-09 13:35:00,
2013-02-09 08:40:00,19.8,19.0,29.43,NNW,330,5.8,10.1,95,0.00,,,0.00,WXlink_for_OpenVMS,2013-02-09 13:40:00,
2013-02-09 08:45:00,19.6,18.0,29.46,NW,314,4.9,5.4,94,0.00,,,0.00,WXlink_for_OpenVMS,2013-02-09 13:45:00,
2013-02-09 08:55:00,19.6,18.0,29.46,WNW,282,4.5,5.4,94,0.00,,,0.00,WXlink_for_OpenVMS,2013-02-09 13:55:00,
2013-02-09 09:00:00,19.6,18.0,29.46,NW,322,6.3,9.6,94,0.00,,,0.00,WXlink_for_OpenVMS,2013-02-09 14:00:00,
2013-02-09 09:05:00,19.4,18.0,29.46,West,268,4.9,4.9,94,0.00,,,0.00,WXlink_for_OpenVMS,2013-02-09 14:05:00,
2013-02-09 09:10:00,19.2,18.0,29.46,WNW,289,3.6,3.6,94,0.00,,,0.00,WXlink_for_OpenVMS,2013-02-09 14:10:00,
2013-02-09 09:15:00,19.2,18.0,29.46,WNW,300,8.1,8.1,94,0.00,,,0.00,WXlink_for_OpenVMS,2013-02-09 14:15:00,
2013-02-09 09:20:00,19.2,18.0,29.46,NNW,338,5.4,7.6,94,0.00,,,0.00,WXlink_for_OpenVMS,2013-02-09 14:20:00,
2013-02-09 09:25:00,18.9,17.0,29.46,NNW,330,5.8,5.8,94,0.00,,,0.00,WXlink_for_OpenVMS,2013-02-09 14:25:00,
2013-02-09 09:35:00,19.0,18.0,29.46,NNW,339,5.8,6.3,94,0.00,,,0.00,WXlink_for_OpenVMS,2013-02-09 14:35:00,
2013-02-09 09:40:00,19.0,18.0,29.46,NW,321,4.5,7.6,94,0.00,,,0.00,WXlink_for_OpenVMS,2013-02-09 14:40:00,
2013-02-09 09:45:00,19.0,18.0,29.49,NW,310,4.9,4.9,94,0.00,,,0.00,WXlink_for_OpenVMS,2013-02-09 14:45:00,
2013-02-09 09:50:00,19.4,18.0,29.49,West,275,4.9,5.4,94,0.00,,,0.00,WXlink_for_OpenVMS,2013-02-09 14:50:00,
2013-02-09 09:55:00,19.4,18.0,29.49,WNW,303,5.8,5.8,94,0.00,,,0.00,WXlink_for_OpenVMS,2013-02-09 14:55:00,
2013-02-09 10:00:00,19.4,18.0,29.49,NNW,330,5.4,6.3,94,0.00,,,0.00,WXlink_for_OpenVMS,2013-02-09 15:00:00,
2013-02-09 10:10:00,19.2,18.0,29.49,NNW,328,5.8,8.3,93,0.00,,,0.00,WXlink_for_OpenVMS,2013-02-09 15:10:00,
2013-02-09 10:15:00,19.4,18.0,29.49,NW,308,4.9,6.3,93,0.00,,,0.00,WXlink_for_OpenVMS,2013-02-09 15:15:00,
2013-02-09 10:20:00,19.2,18.0,29.49,NW,317,5.4,6.3,94,0.00,,,0.00,WXlink_for_OpenVMS,2013-02-09 15:20:00,
2013-02-09 10:25:00,19.2,18.0,29.49,WNW,291,3.6,5.8,94,0.00,,,0.00,WXlink_for_OpenVMS,2013-02-09 15:25:00,
2013-02-09 10:30:00,19.2,18.0,29.52,NNW,341,4.9,4.9,94,0.00,,,0.00,WXlink_for_OpenVMS,2013-02-09 15:30:00,
2013-02-09 10:35:00,19.4,18.0,29.52,WNW,303,4.9,4.9,94,0.00,,,0.00,WXlink_for_OpenVMS,2013-02-09 15:35:00,
2013-02-09 10:40:00,19.8,18.0,29.52,NW,310,5.4,5.8,94,0.00,,,0.00,WXlink_for_OpenVMS,2013-02-09 15:40:00,
2013-02-09 10:45:00,19.9,18.0,29.52,West,265,7.2,7.2,94,0.00,,,0.00,WXlink_for_OpenVMS,2013-02-09 15:45:00,
2013-02-09 10:55:00,19.8,18.0,29.52,NNW,344,6.3,7.2,94,0.00,,,0.00,WXlink_for_OpenVMS,2013-02-09 15:55:00,
2013-02-09 11:00:00,20.1,19.0,29.52,WNW,283,4.0,6.3,94,0.00,,,0.00,WXlink_for_OpenVMS,2013-02-09 16:00:00,
2013-02-09 11:05:00,20.1,19.0,29.52,NW,312,5.8,6.3,95,0.00,,,0.00,WXlink_for_OpenVMS,2013-02-09 16:05:00,
2013-02-09 11:10:00,20.3,19.0,29.52,NNW,327,6.3,6.3,95,0.00,,,0.00,WXlink_for_OpenVMS,2013-02-09 16:10:00,
2013-02-09 11:15:00,20.3,19.0,29.52,WNW,284,6.3,6.3,95,0.00,,,0.00,WXlink_for_OpenVMS,2013-02-09 16:15:00,
2013-02-09 11:20:00,20.3,19.0,29.52,WNW,282,5.4,7.2,95,0.00,,,0.00,WXlink_for_OpenVMS,2013-02-09 16:20:00,
2013-02-09 11:30:00,20.5,19.0,29.52,NW,323,6.7,6.7,95,0.00,,,0.00,WXlink_for_OpenVMS,2013-02-09 16:30:00,
2013-02-09 11:35:00,20.5,19.0,29.52,WNW,297,10.1,10.1,95,0.00,,,0.00,WXlink_for_OpenVMS,2013-02-09 16:35:00,
2013-02-09 11:40:00,20.5,19.0,29.52,NW,324,8.1,8.1,94,0.00,,,0.00,WXlink_for_OpenVMS,2013-02-09 16:40:00,
2013-02-09 11:45:00,20.5,19.0,29.52,NW,312,8.7,10.1,94,0.00,,,0.00,WXlink_for_OpenVMS,2013-02-09 16:45:00,
2013-02-09 11:50:00,20.7,19.0,29.52,NNW,344,7.2,7.2,95,0.00,,,0.00,WXlink_for_OpenVMS,2013-02-09 16:50:00,
2013-02-09 12:00:00,21.4,20.0,29.52,NW,306,8.1,8.7,95,0.00,,,0.00,WXlink_for_OpenVMS,2013-02-09 17:00:00,
2013-02-09 12:05:00,21.6,20.0,29.52,NNW,333,6.7,6.7,95,0.00,,,0.00,WXlink_for_OpenVMS,2013-02-09 17:05:00,
2013-02-09 12:10:00,21.6,20.0,29.52,WNW,297,6.7,6.7,95,0.00,,,0.00,WXlink_for_OpenVMS,2013-02-09 17:10:00,
2013-02-09 12:15:00,21.7,21.0,29.55,WNW,299,7.6,7.6,95,0.00,,,0.00,WXlink_for_OpenVMS,2013-02-09 17:15:00,
2013-02-09 12:20:00,21.7,21.0,29.55,WNW,298,7.6,8.1,95,0.00,,,0.00,WXlink_for_OpenVMS,2013-02-09 17:20:00,
2013-02-09 12:25:00,21.7,20.0,29.55,NW,319,6.3,8.1,94,0.00,,,0.00,WXlink_for_OpenVMS,2013-02-09 17:25:00,
2013-02-09 12:30:00,21.9,21.0,29.55,NW,312,6.7,8.3,95,0.00,,,0.00,WXlink_for_OpenVMS,2013-02-09 17:30:00,
2013-02-09 12:35:00,21.9,20.0,29.55,NW,321,6.7,8.1,94,0.00,,,0.00,WXlink_for_OpenVMS,2013-02-09 17:35:00,
2013-02-09 12:40:00,21.7,20.0,29.55,NW,309,6.3,8.1,94,0.00,,,0.00,WXlink_for_OpenVMS,2013-02-09 17:40:00,
2013-02-09 12:50:00,21.7,20.0,29.55,NNW,328,6.7,8.3,94,0.00,,,0.00,WXlink_for_OpenVMS,2013-02-09 17:50:00,
2013-02-09 12:55:00,21.7,20.0,29.55,NW,307,6.7,8.3,93,0.00,,,0.00,WXlink_for_OpenVMS,2013-02-09 17:55:00,
2013-02-09 13:00:00,21.7,20.0,29.55,NW,316,4.0,4.0,93,0.00,,,0.00,WXlink_for_OpenVMS,2013-02-09 18:00:00,
2013-02-09 13:05:00,21.9,20.0,29.55,NNW,329,7.2,8.1,94,0.00,,,0.00,WXlink_for_OpenVMS,2013-02-09 18:05:00,
2013-02-09 13:10:00,22.1,20.0,29.55,NW,319,5.8,6.3,93,0.00,,,0.00,WXlink_for_OpenVMS,2013-02-09 18:10:00,
2013-02-09 13:15:00,22.3,21.0,29.58,WNW,302,5.8,8.1,93,0.00,,,0.00,WXlink_for_OpenVMS,2013-02-09 18:15:00,
2013-02-09 13:20:00,22.5,21.0,29.58,WNW,292,6.3,6.3,93,0.00,,,0.00,WXlink_for_OpenVMS,2013-02-09 18:20:00,
2013-02-09 13:30:00,22.3,20.0,29.58,WNW,301,3.6,5.8,92,0.00,,,0.00,WXlink_for_OpenVMS,2013-02-09 18:30:00,
2013-02-09 13:35:00,22.5,20.0,29.58,NW,316,8.1,8.1,92,0.00,,,0.00,WXlink_for_OpenVMS,2013-02-09 18:35:00,
2013-02-09 13:40:00,22.3,20.0,29.58,WNW,297,8.3,8.3,91,0.00,,,0.00,WXlink_for_OpenVMS,2013-02-09 18:40:00,
2013-02-09 13:45:00,22.3,20.0,29.58,NW,308,6.3,6.3,91,0.00,,,0.00,WXlink_for_OpenVMS,2013-02-09 18:45:00,
2013-02-09 13:50:00,22.3,20.0,29.58,NW,322,5.4,10.1,90,0.00,,,0.00,WXlink_for_OpenVMS,2013-02-09 18:50:00,
2013-02-09 13:55:00,22.3,20.0,29.58,NW,315,5.4,8.3,90,0.00,,,0.00,WXlink_for_OpenVMS,2013-02-09 18:55:00,
2013-02-09 14:05:00,22.1,19.0,29.58,NW,316,5.4,5.4,89,0.00,,,0.00,WXlink_for_OpenVMS,2013-02-09 19:05:00,
2013-02-09 14:10:00,22.1,19.0,29.58,WNW,292,4.9,4.9,89,0.00,,,0.00,WXlink_for_OpenVMS,2013-02-09 19:10:00,
2013-02-09 14:15:00,22.1,19.0,29.60,WNW,286,8.7,8.7,88,0.00,,,0.00,WXlink_for_OpenVMS,2013-02-09 19:15:00,
2013-02-09 14:20:00,22.1,19.0,29.60,NW,322,6.3,6.3,88,0.00,,,0.00,WXlink_for_OpenVMS,2013-02-09 19:20:00,
2013-02-09 14:25:00,22.3,19.0,29.60,WNW,283,5.4,7.6,88,0.00,,,0.00,WXlink_for_OpenVMS,2013-02-09 19:25:00,
2013-02-09 14:30:00,22.5,19.0,29.60,WNW,292,3.1,5.4,88,0.00,,,0.00,WXlink_for_OpenVMS,2013-02-09 19:30:00,
2013-02-09 14:35:00,22.6,19.0,29.60,NW,323,8.3,8.3,87,0.00,,,0.00,WXlink_for_OpenVMS,2013-02-09 19:35:00,
2013-02-09 14:40:00,22.8,19.0,29.60,West,281,6.7,6.7,86,0.00,,,0.00,WXlink_for_OpenVMS,2013-02-09 19:40:00,
2013-02-09 14:45:00,22.8,19.0,29.63,NW,317,6.3,6.3,85,0.00,,,0.00,WXlink_for_OpenVMS,2013-02-09 19:45:00,
2013-02-09 14:51:00,22.8,19.0,29.63,NW,315,6.3,6.3,85,0.00,,,0.00,WXlink_for_OpenVMS,2013-02-09 19:51:00,
2013-02-09 15:00:00,22.8,19.0,29.63,NW,309,6.3,8.3,84,0.00,,,0.00,WXlink_for_OpenVMS,2013-02-09 20:00:00,
2013-02-09 15:05:00,22.8,18.0,29.63,NW,322,6.7,6.7,83,0.00,,,0.00,WXlink_for_OpenVMS,2013-02-09 20:05:00,
2013-02-09 15:10:00,22.6,18.0,29.63,North,0,7.6,7.6,83,0.00,,,0.00,WXlink_for_OpenVMS,2013-02-09 20:10:00,
2013-02-09 15:15:00,22.6,18.0,29.63,NW,311,4.5,6.3,82,0.00,,,0.00,WXlink_for_OpenVMS,2013-02-09 20:15:00,
2013-02-09 15:21:00,22.8,18.0,29.63,NW,324,4.0,4.9,83,0.00,,,0.00,WXlink_for_OpenVMS,2013-02-09 20:21:00,
2013-02-09 15:30:00,23.0,19.0,29.66,West,262,5.4,8.3,83,0.00,,,0.00,WXlink_for_OpenVMS,2013-02-09 20:30:00,
2013-02-09 15:35:00,22.8,18.0,29.66,NNW,339,4.5,6.3,82,0.00,,,0.00,WXlink_for_OpenVMS,2013-02-09 20:35:00,
2013-02-09 15:40:00,22.6,17.0,29.66,NW,319,5.8,6.3,80,0.00,,,0.00,WXlink_for_OpenVMS,2013-02-09 20:40:00,
2013-02-09 15:50:00,22.5,17.0,29.66,NW,316,3.6,6.3,78,0.00,,,0.00,WXlink_for_OpenVMS,2013-02-09 20:50:00,
2013-02-09 15:55:00,22.5,16.0,29.66,NW,325,7.6,7.6,77,0.00,,,0.00,WXlink_for_OpenVMS,2013-02-09 20:55:00,
2013-02-09 16:05:00,22.5,15.0,29.69,WNW,303,4.0,8.3,73,0.00,,,0.00,WXlink_for_OpenVMS,2013-02-09 21:05:00,
2013-02-09 16:10:00,22.3,15.0,29.69,NNW,329,4.0,6.3,72,0.00,,,0.00,WXlink_for_OpenVMS,2013-02-09 21:10:00,
2013-02-09 16:15:00,22.3,14.0,29.69,NNW,333,5.4,5.8,70,0.00,,,0.00,WXlink_for_OpenVMS,2013-02-09 21:15:00,
2013-02-09 16:20:00,22.3,14.0,29.69,NNW,330,3.6,6.3,69,0.00,,,0.00,WXlink_for_OpenVMS,2013-02-09 21:20:00,
2013-02-09 16:25:00,22.5,13.0,29.69,NNW,328,7.6,7.6,68,0.00,,,0.00,WXlink_for_OpenVMS,2013-02-09 21:25:00,
2013-02-09 16:30:00,22.6,13.0,29.69,NNW,330,5.4,5.8,67,0.00,,,0.00,WXlink_for_OpenVMS,2013-02-09 21:30:00,
2013-02-09 16:35:00,22.6,13.0,29.69,NW,304,4.9,4.9,66,0.00,,,0.00,WXlink_for_OpenVMS,2013-02-09 21:35:00,
2013-02-09 16:45:00,22.8,13.0,29.69,WSW,258,3.6,4.9,65,0.00,,,0.00,WXlink_for_OpenVMS,2013-02-09 21:45:00,
2013-02-09 16:50:00,22.6,13.0,29.69,WNW,297,4.5,8.3,65,0.00,,,0.00,WXlink_for_OpenVMS,2013-02-09 21:50:00,
2013-02-09 16:55:00,22.5,12.0,29.69,NNW,345,6.3,6.3,64,0.00,,,0.00,WXlink_for_OpenVMS,2013-02-09 21:55:00,
2013-02-09 17:00:00,22.5,12.0,29.72,NW,313,5.8,5.8,64,0.00,,,0.00,WXlink_for_OpenVMS,2013-02-09 22:00:00,
2013-02-09 17:05:00,22.3,12.0,29.72,NW,307,4.9,6.7,63,0.00,,,0.00,WXlink_for_OpenVMS,2013-02-09 22:05:00,
2013-02-09 17:10:00,22.3,12.0,29.72,NW,319,4.5,4.5,63,0.00,,,0.00,WXlink_for_OpenVMS,2013-02-09 22:10:00,
2013-02-09 17:15:00,22.3,12.0,29.72,West,280,4.9,4.9,64,0.00,,,0.00,WXlink_for_OpenVMS,2013-02-09 22:15:00,
2013-02-09 17:25:00,22.1,12.0,29.72,WNW,292,5.4,5.4,64,0.00,,,0.00,WXlink_for_OpenVMS,2013-02-09 22:25:00,
2013-02-09 17:30:00,21.9,12.0,29.72,North,0,5.8,5.8,64,0.00,,,0.00,WXlink_for_OpenVMS,2013-02-09 22:30:00,
2013-02-09 17:35:00,21.9,12.0,29.72,NNW,346,4.9,4.9,64,0.00,,,0.00,WXlink_for_OpenVMS,2013-02-09 22:35:00,
2013-02-09 17:40:00,21.7,11.0,29.72,WNW,303,5.4,10.1,63,0.00,,,0.00,WXlink_for_OpenVMS,2013-02-09 22:40:00,
2013-02-09 17:45:00,21.7,11.0,29.75,NNW,333,5.4,5.4,63,0.00,,,0.00,WXlink_for_OpenVMS,2013-02-09 22:45:00,
2013-02-09 17:50:00,21.6,11.0,29.75,NNW,334,7.2,7.2,62,0.00,,,0.00,WXlink_for_OpenVMS,2013-02-09 22:50:00,
2013-02-09 18:00:00,21.4,10.0,29.75,NW,317,6.7,8.7,62,0.00,,,0.00,WXlink_for_OpenVMS,2013-02-09 23:00:00,
2013-02-09 18:05:00,21.2,10.0,29.75,NNE,27,4.9,4.9,62,0.00,,,0.00,WXlink_for_OpenVMS,2013-02-09 23:05:00,
2013-02-09 18:10:00,21.2,10.0,29.75,NNW,341,3.1,3.1,62,0.00,,,0.00,WXlink_for_OpenVMS,2013-02-09 23:10:00,
2013-02-09 18:15:00,21.2,10.0,29.78,WNW,298,3.6,3.6,62,0.00,,,0.00,WXlink_for_OpenVMS,2013-02-09 23:15:00,
2013-02-09 18:20:00,21.2,10.0,29.78,NNW,327,3.1,6.3,62,0.00,,,0.00,WXlink_for_OpenVMS,2013-02-09 23:20:00,
2013-02-09 18:25:00,21.0,10.0,29.78,NW,324,4.5,4.9,62,0.00,,,0.00,WXlink_for_OpenVMS,2013-02-09 23:25:00,
2013-02-09 18:30:00,21.0,10.0,29.78,NW,305,4.9,4.9,62,0.00,,,0.00,WXlink_for_OpenVMS,2013-02-09 23:30:00,
2013-02-09 18:35:00,21.0,10.0,29.78,NW,304,3.1,5.8,63,0.00,,,0.00,WXlink_for_OpenVMS,2013-02-09 23:35:00,
2013-02-09 18:45:00,20.8,10.0,29.78,NNW,333,3.6,6.3,62,0.00,,,0.00,WXlink_for_OpenVMS,2013-02-09 23:45:00,
2013-02-09 18:50:00,20.7,10.0,29.78,West,274,5.4,5.4,62,0.00,,,0.00,WXlink_for_OpenVMS,2013-02-09 23:50:00,
2013-02-09 18:55:00,20.5,10.0,29.78,NNW,346,4.0,4.0,62,0.00,,,0.00,WXlink_for_OpenVMS,2013-02-09 23:55:00,
2013-02-09 19:00:00,20.3,9.0,29.81,NW,319,4.5,4.9,62,0.00,,,0.00,WXlink_for_OpenVMS,2013-02-10 00:00:00,
2013-02-09 19:05:00,20.1,9.0,29.81,NNW,329,4.9,4.9,62,0.00,,,0.00,WXlink_for_OpenVMS,2013-02-10 00:05:00,
2013-02-09 19:10:00,19.9,9.0,29.81,NNW,348,4.5,4.5,62,0.00,,,0.00,WXlink_for_OpenVMS,2013-02-10 00:10:00,
2013-02-09 19:15:00,19.8,8.0,29.81,WNW,282,5.8,5.8,61,0.00,,,0.00,WXlink_for_OpenVMS,2013-02-10 00:15:00,
2013-02-09 19:25:00,19.4,8.0,29.81,NW,315,5.8,5.8,61,0.00,,,0.00,WXlink_for_OpenVMS,2013-02-10 00:25:00,
2013-02-09 19:30:00,19.2,8.0,29.81,NNW,334,5.4,5.8,61,0.00,,,0.00,WXlink_for_OpenVMS,2013-02-10 00:30:00,
2013-02-09 19:35:00,19.2,8.0,29.81,NNW,331,6.3,6.7,61,0.00,,,0.00,WXlink_for_OpenVMS,2013-02-10 00:35:00,
2013-02-09 19:40:00,19.0,7.0,29.81,NNW,327,5.4,7.6,60,0.00,,,0.00,WXlink_for_OpenVMS,2013-02-10 00:40:00,
2013-02-09 19:45:00,18.7,7.0,29.81,NW,313,5.8,7.6,61,0.00,,,0.00,WXlink_for_OpenVMS,2013-02-10 00:45:00,
2013-02-09 19:50:00,18.7,7.0,29.81,West,259,3.6,3.6,61,0.00,,,0.00,WXlink_for_OpenVMS,2013-02-10 00:50:00,
2013-02-09 20:00:00,18.3,7.0,29.84,WNW,284,4.5,4.9,61,0.00,,,0.00,WXlink_for_OpenVMS,2013-02-10 01:00:00,
2013-02-09 20:05:00,18.3,7.0,29.84,NW,305,4.9,5.8,61,0.00,,,0.00,WXlink_for_OpenVMS,2013-02-10 01:05:00,
2013-02-09 20:10:00,18.3,7.0,29.84,NNW,328,6.7,6.7,60,0.00,,,0.00,WXlink_for_OpenVMS,2013-02-10 01:10:00,
2013-02-09 20:15:00,18.1,7.0,29.84,NNW,329,4.5,5.8,60,0.00,,,0.00,WXlink_for_OpenVMS,2013-02-10 01:15:00,
2013-02-09 20:20:00,18.1,7.0,29.84,NW,320,3.6,3.6,60,0.00,,,0.00,WXlink_for_OpenVMS,2013-02-10 01:20:00,
2013-02-09 20:25:00,18.1,7.0,29.84,WNW,292,4.5,4.5,60,0.00,,,0.00,WXlink_for_OpenVMS,2013-02-10 01:25:00,
2013-02-09 20:30:00,17.8,6.0,29.84,North,8,4.0,5.4,60,0.00,,,0.00,WXlink_for_OpenVMS,2013-02-10 01:30:00,
2013-02-09 20:35:00,17.6,6.0,29.84,WNW,286,4.9,4.9,60,0.00,,,0.00,WXlink_for_OpenVMS,2013-02-10 01:35:00,
2013-02-09 20:40:00,17.6,6.0,29.84,NNW,334,5.4,5.4,60,0.00,,,0.00,WXlink_for_OpenVMS,2013-02-10 01:40:00,
2013-02-09 20:50:00,17.4,6.0,29.86,WNW,294,5.4,5.4,59,0.00,,,0.00,WXlink_for_OpenVMS,2013-02-10 01:50:00,
2013-02-09 20:55:00,17.4,6.0,29.86,NW,322,4.5,5.4,59,0.00,,,0.00,WXlink_for_OpenVMS,2013-02-10 01:55:00,
2013-02-09 21:00:00,17.4,6.0,29.86,WNW,295,4.0,4.0,60,0.00,,,0.00,WXlink_for_OpenVMS,2013-02-10 02:00:00,
2013-02-09 21:06:00,17.1,6.0,29.86,WNW,292,4.9,4.9,60,0.00,,,0.00,WXlink_for_OpenVMS,2013-02-10 02:06:00,
2013-02-09 21:15:00,17.1,6.0,29.86,NW,321,4.5,4.5,60,0.00,,,0.00,WXlink_for_OpenVMS,2013-02-10 02:15:00,
2013-02-09 21:20:00,16.9,5.0,29.86,NNW,327,5.8,5.8,59,0.00,,,0.00,WXlink_for_OpenVMS,2013-02-10 02:20:00,
2013-02-09 21:30:00,16.9,5.0,29.86,NW,311,4.0,4.0,59,0.00,,,0.00,WXlink_for_OpenVMS,2013-02-10 02:30:00,
2013-02-09 21:35:00,16.9,5.0,29.86,NW,315,4.0,4.0,59,0.00,,,0.00,WXlink_for_OpenVMS,2013-02-10 02:35:00,
2013-02-09 21:40:00,16.9,5.0,29.86,WNW,301,3.1,3.6,58,0.00,,,0.00,WXlink_for_OpenVMS,2013-02-10 02:40:00,
2013-02-09 21:45:00,16.9,5.0,29.86,WNW,295,4.5,6.3,58,0.00,,,0.00,WXlink_for_OpenVMS,2013-02-10 02:45:00,
2013-02-09 21:55:00,16.7,4.0,29.86,NW,321,3.6,4.0,58,0.00,,,0.00,WXlink_for_OpenVMS,2013-02-10 02:55:00,
2013-02-09 22:00:00,16.7,4.0,29.86,NW,305,4.0,4.0,57,0.00,,,0.00,WXlink_for_OpenVMS,2013-02-10 03:00:00,
2013-02-09 22:05:00,16.5,4.0,29.86,NW,326,5.4,6.3,57,0.00,,,0.00,WXlink_for_OpenVMS,2013-02-10 03:05:00,
2013-02-09 22:10:00,16.5,4.0,29.86,WNW,296,5.8,5.8,56,0.00,,,0.00,WXlink_for_OpenVMS,2013-02-10 03:10:00,
2013-02-09 22:15:00,16.5,4.0,29.90,NNW,335,4.9,4.9,56,0.00,,,0.00,WXlink_for_OpenVMS,2013-02-10 03:15:00,
2013-02-09 22:20:00,16.5,4.0,29.90,WNW,284,4.0,4.0,56,0.00,,,0.00,WXlink_for_OpenVMS,2013-02-10 03:20:00,
2013-02-09 22:25:00,16.3,3.0,29.90,NNW,334,4.5,5.8,56,0.00,,,0.00,WXlink_for_OpenVMS,2013-02-10 03:25:00,
2013-02-09 22:30:00,16.3,3.0,29.90,NW,306,4.0,4.9,56,0.00,,,0.00,WXlink_for_OpenVMS,2013-02-10 03:30:00,
2013-02-09 22:40:00,16.5,3.0,29.90,West,280,4.5,6.3,55,0.00,,,0.00,WXlink_for_OpenVMS,2013-02-10 03:40:00,
2013-02-09 22:45:00,16.5,3.0,29.90,NW,325,5.4,5.4,55,0.00,,,0.00,WXlink_for_OpenVMS,2013-02-10 03:45:00,
2013-02-09 22:50:00,16.5,3.0,29.90,NW,313,5.8,6.3,55,0.00,,,0.00,WXlink_for_OpenVMS,2013-02-10 03:50:00,
2013-02-09 22:55:00,16.5,3.0,29.90,NNW,335,3.6,5.8,55,0.00,,,0.00,WXlink_for_OpenVMS,2013-02-10 03:55:00,
2013-02-09 23:00:00,16.3,3.0,29.90,WNW,288,4.0,4.0,55,0.00,,,0.00,WXlink_for_OpenVMS,2013-02-10 04:00:00,
2013-02-09 23:05:00,16.2,3.0,29.90,NW,308,4.5,4.5,55,0.00,,,0.00,WXlink_for_OpenVMS,2013-02-10 04:05:00,
2013-02-09 23:10:00,16.5,3.0,29.90,NW,308,4.9,5.4,55,0.00,,,0.00,WXlink_for_OpenVMS,2013-02-10 04:10:00,
2013-02-09 23:20:00,16.5,3.0,29.90,WNW,294,5.8,5.8,54,0.00,,,0.00,WXlink_for_OpenVMS,2013-02-10 04:20:00,
2013-02-09 23:25:00,16.5,3.0,29.90,NW,326,4.9,5.8,54,0.00,,,0.00,WXlink_for_OpenVMS,2013-02-10 04:25:00,
2013-02-09 23:30:00,16.3,3.0,29.90,NW,306,3.1,4.0,54,0.00,,,0.00,WXlink_for_OpenVMS,2013-02-10 04:30:00,
2013-02-09 23:35:00,16.3,3.0,29.90,NW,313,3.1,0.0,54,0.00,,,0.00,WXlink_for_OpenVMS,2013-02-10 04:35:00,
2013-02-09 23:40:00,16.3,3.0,29.90,NW,321,4.0,4.0,54,0.00,,,0.00,WXlink_for_OpenVMS,2013-02-10 04:40:00,
2013-02-09 23:45:00,16.5,3.0,29.93,NW,308,4.0,4.0,54,0.00,,,0.00,WXlink_for_OpenVMS,2013-02-10 04:45:00,
2013-02-09 23:55:00,16.5,3.0,29.93,WNW,292,4.0,5.4,54,0.00,,,0.00,WXlink_for_OpenVMS,2013-02-10 04:55:00,